sensor_id;sensor_type;location;lat;lon;timestamp;temperature;humidity
28189;DHT22;15471;51.166;4.470;2022-09-01T00:02:26;19.50;98.60
28189;DHT22;15471;51.166;4.470;2022-09-01T00:04:55;19.20;99.00
28189;DHT22;15471;51.166;4.470;2022-09-01T00:07:26;19.10;99.50
28189;DHT22;15471;51.166;4.470;2022-09-01T00:09:58;19.10;99.40
28189;DHT22;15471;51.166;4.470;2022-09-01T00:12:32;19.10;99.40
28189;DHT22;15471;51.166;4.470;2022-09-01T00:15:04;19.10;99.50
28189;DHT22;15471;51.166;4.470;2022-09-01T00:17:38;19.00;99.70
28189;DHT22;15471;51.166;4.470;2022-09-01T00:20:16;18.90;99.90
28189;DHT22;15471;51.166;4.470;2022-09-01T00:22:46;18.80;99.90
28189;DHT22;15471;51.166;4.470;2022-09-01T00:25:20;18.90;99.70
28189;DHT22;15471;51.166;4.470;2022-09-01T00:27:49;18.90;99.80
28189;DHT22;15471;51.166;4.470;2022-09-01T00:30:25;18.80;99.90
28189;DHT22;15471;51.166;4.470;2022-09-01T00:32:59;18.70;99.90
28189;DHT22;15471;51.166;4.470;2022-09-01T00:35:26;18.70;99.90
28189;DHT22;15471;51.166;4.470;2022-09-01T00:37:54;18.70;99.90
28189;DHT22;15471;51.166;4.470;2022-09-01T00:40:21;18.70;99.90
28189;DHT22;15471;51.166;4.470;2022-09-01T00:43:16;18.70;99.90
28189;DHT22;15471;51.166;4.470;2022-09-01T00:45:48;18.60;99.90
28189;DHT22;15471;51.166;4.470;2022-09-01T00:48:17;18.50;99.90
28189;DHT22;15471;51.166;4.470;2022-09-01T00:50:51;18.40;99.90
28189;DHT22;15471;51.166;4.470;2022-09-01T00:53:19;18.40;99.90
28189;DHT22;15471;51.166;4.470;2022-09-01T00:55:47;18.40;99.90
28189;DHT22;15471;51.166;4.470;2022-09-01T00:58:14;18.40;99.90
28189;DHT22;15471;51.166;4.470;2022-09-01T01:00:46;18.40;99.90
28189;DHT22;15471;51.166;4.470;2022-09-01T01:03:15;18.40;99.90
28189;DHT22;15471;51.166;4.470;2022-09-01T01:05:56;18.40;99.90
28189;DHT22;15471;51.166;4.470;2022-09-01T01:08:30;18.30;99.90
28189;DHT22;15471;51.166;4.470;2022-09-01T01:16:27;17.70;99.90
28189;DHT22;15471;51.166;4.470;2022-09-01T01:19:01;17.70;99.90
28189;DHT22;15471;51.166;4.470;2022-09-01T01:21:42;17.80;99.90
28189;DHT22;15471;51.166;4.470;2022-09-01T01:24:32;17.90;99.90
28189;DHT22;15471;51.166;4.470;2022-09-01T01:27:19;17.90;99.90
28189;DHT22;15471;51.166;4.470;2022-09-01T01:29:55;17.80;99.90
28189;DHT22;15471;51.166;4.470;2022-09-01T01:32:30;17.80;99.90
28189;DHT22;15471;51.166;4.470;2022-09-01T01:34:57;17.80;99.90
28189;DHT22;15471;51.166;4.470;2022-09-01T01:37:32;17.70;99.90
28189;DHT22;15471;51.166;4.470;2022-09-01T01:39:59;17.70;99.90
28189;DHT22;15471;51.166;4.470;2022-09-01T01:42:32;17.60;99.90
28189;DHT22;15471;51.166;4.470;2022-09-01T01:44:59;17.50;99.90
28189;DHT22;15471;51.166;4.470;2022-09-01T01:47:36;17.70;99.90
28189;DHT22;15471;51.166;4.470;2022-09-01T01:50:43;17.70;99.90
28189;DHT22;15471;51.166;4.470;2022-09-01T01:53:19;17.70;99.90
28189;DHT22;15471;51.166;4.470;2022-09-01T01:56:05;17.70;99.90
28189;DHT22;15471;51.166;4.470;2022-09-01T01:58:36;17.90;99.90
28189;DHT22;15471;51.166;4.470;2022-09-01T02:01:10;17.90;99.90
28189;DHT22;15471;51.166;4.470;2022-09-01T02:03:38;17.80;99.90
28189;DHT22;15471;51.166;4.470;2022-09-01T02:06:29;17.90;99.90
28189;DHT22;15471;51.166;4.470;2022-09-01T02:09:20;17.90;99.90
28189;DHT22;15471;51.166;4.470;2022-09-01T02:11:48;17.80;99.90
28189;DHT22;15471;51.166;4.470;2022-09-01T02:14:39;17.80;99.90
28189;DHT22;15471;51.166;4.470;2022-09-01T02:17:06;17.80;99.90
28189;DHT22;15471;51.166;4.470;2022-09-01T02:19:35;17.90;99.90
28189;DHT22;15471;51.166;4.470;2022-09-01T02:22:14;17.90;99.90
28189;DHT22;15471;51.166;4.470;2022-09-01T02:24:42;17.90;99.90
28189;DHT22;15471;51.166;4.470;2022-09-01T02:27:16;17.80;99.90
28189;DHT22;15471;51.166;4.470;2022-09-01T02:29:53;17.90;99.90
28189;DHT22;15471;51.166;4.470;2022-09-01T02:32:21;17.70;99.90
28189;DHT22;15471;51.166;4.470;2022-09-01T02:34:50;17.60;99.90
28189;DHT22;15471;51.166;4.470;2022-09-01T02:37:22;17.40;99.90
28189;DHT22;15471;51.166;4.470;2022-09-01T02:39:51;17.50;99.90
28189;DHT22;15471;51.166;4.470;2022-09-01T02:42:19;17.50;99.90
28189;DHT22;15471;51.166;4.470;2022-09-01T02:44:53;17.30;99.90
28189;DHT22;15471;51.166;4.470;2022-09-01T02:47:23;17.30;99.90
28189;DHT22;15471;51.166;4.470;2022-09-01T02:49:53;17.10;99.90
28189;DHT22;15471;51.166;4.470;2022-09-01T02:52:31;17.00;99.90
28189;DHT22;15471;51.166;4.470;2022-09-01T02:55:06;17.00;99.90
28189;DHT22;15471;51.166;4.470;2022-09-01T02:57:37;17.00;99.90
28189;DHT22;15471;51.166;4.470;2022-09-01T03:00:07;17.00;99.90
28189;DHT22;15471;51.166;4.470;2022-09-01T03:02:50;17.00;99.90
28189;DHT22;15471;51.166;4.470;2022-09-01T03:05:20;17.00;99.90
28189;DHT22;15471;51.166;4.470;2022-09-01T03:08:17;17.00;99.90
28189;DHT22;15471;51.166;4.470;2022-09-01T03:10:53;17.00;99.90
28189;DHT22;15471;51.166;4.470;2022-09-01T03:13:29;16.80;99.90
28189;DHT22;15471;51.166;4.470;2022-09-01T03:16:00;16.80;99.90
28189;DHT22;15471;51.166;4.470;2022-09-01T03:18:29;16.80;99.90
28189;DHT22;15471;51.166;4.470;2022-09-01T03:21:06;16.80;99.90
28189;DHT22;15471;51.166;4.470;2022-09-01T03:23:50;16.90;99.90
28189;DHT22;15471;51.166;4.470;2022-09-01T03:26:20;17.10;99.90
28189;DHT22;15471;51.166;4.470;2022-09-01T03:28:55;17.10;99.90
28189;DHT22;15471;51.166;4.470;2022-09-01T03:31:28;17.00;99.90
28189;DHT22;15471;51.166;4.470;2022-09-01T03:33:57;16.90;99.90
28189;DHT22;15471;51.166;4.470;2022-09-01T03:36:33;16.90;99.90
28189;DHT22;15471;51.166;4.470;2022-09-01T03:39:00;16.80;99.90
28189;DHT22;15471;51.166;4.470;2022-09-01T03:41:33;17.00;99.90
28189;DHT22;15471;51.166;4.470;2022-09-01T03:44:04;17.00;99.90
28189;DHT22;15471;51.166;4.470;2022-09-01T03:46:32;17.00;99.90
28189;DHT22;15471;51.166;4.470;2022-09-01T03:49:01;17.10;99.90
28189;DHT22;15471;51.166;4.470;2022-09-01T03:51:33;17.10;99.90
28189;DHT22;15471;51.166;4.470;2022-09-01T03:54:09;17.00;99.90
28189;DHT22;15471;51.166;4.470;2022-09-01T03:56:35;17.00;99.90
28189;DHT22;15471;51.166;4.470;2022-09-01T03:59:08;17.00;99.90
28189;DHT22;15471;51.166;4.470;2022-09-01T04:01:46;17.10;99.90
28189;DHT22;15471;51.166;4.470;2022-09-01T04:04:17;17.00;99.90
28189;DHT22;15471;51.166;4.470;2022-09-01T04:06:45;17.00;99.90
28189;DHT22;15471;51.166;4.470;2022-09-01T04:09:20;16.90;99.90
28189;DHT22;15471;51.166;4.470;2022-09-01T04:12:10;16.90;99.90
28189;DHT22;15471;51.166;4.470;2022-09-01T04:14:48;16.80;99.90
28189;DHT22;15471;51.166;4.470;2022-09-01T04:17:18;16.70;99.90
28189;DHT22;15471;51.166;4.470;2022-09-01T04:20:05;16.60;99.90
28189;DHT22;15471;51.166;4.470;2022-09-01T04:22:37;16.70;99.90
28189;DHT22;15471;51.166;4.470;2022-09-01T04:25:07;16.70;99.90
28189;DHT22;15471;51.166;4.470;2022-09-01T04:27:38;16.60;99.90
28189;DHT22;15471;51.166;4.470;2022-09-01T04:30:12;16.50;99.90
28189;DHT22;15471;51.166;4.470;2022-09-01T04:32:43;16.50;99.90
28189;DHT22;15471;51.166;4.470;2022-09-01T04:35:12;16.40;99.90
28189;DHT22;15471;51.166;4.470;2022-09-01T04:37:45;16.40;99.90
28189;DHT22;15471;51.166;4.470;2022-09-01T04:40:16;16.20;99.90
28189;DHT22;15471;51.166;4.470;2022-09-01T04:42:46;16.20;99.90
28189;DHT22;15471;51.166;4.470;2022-09-01T04:45:18;16.30;99.90
28189;DHT22;15471;51.166;4.470;2022-09-01T04:47:48;16.20;99.90
28189;DHT22;15471;51.166;4.470;2022-09-01T04:50:20;16.10;99.90
28189;DHT22;15471;51.166;4.470;2022-09-01T04:53:17;16.10;99.90
28189;DHT22;15471;51.166;4.470;2022-09-01T04:55:47;16.10;99.90
28189;DHT22;15471;51.166;4.470;2022-09-01T04:58:39;16.00;99.90
28189;DHT22;15471;51.166;4.470;2022-09-01T05:01:17;15.90;99.90
28189;DHT22;15471;51.166;4.470;2022-09-01T05:03:48;15.90;99.90
28189;DHT22;15471;51.166;4.470;2022-09-01T05:06:47;15.80;99.90
28189;DHT22;15471;51.166;4.470;2022-09-01T05:09:17;15.80;99.90
28189;DHT22;15471;51.166;4.470;2022-09-01T05:12:07;16.00;99.90
28189;DHT22;15471;51.166;4.470;2022-09-01T05:14:42;15.80;99.90
28189;DHT22;15471;51.166;4.470;2022-09-01T05:17:14;15.80;99.90
28189;DHT22;15471;51.166;4.470;2022-09-01T05:19:45;15.70;99.90
28189;DHT22;15471;51.166;4.470;2022-09-01T05:22:14;15.80;99.90
28189;DHT22;15471;51.166;4.470;2022-09-01T05:24:51;15.90;99.90
28189;DHT22;15471;51.166;4.470;2022-09-01T05:27:20;15.90;99.90
28189;DHT22;15471;51.166;4.470;2022-09-01T05:29:50;15.90;99.90
28189;DHT22;15471;51.166;4.470;2022-09-01T05:32:40;15.70;99.90
28189;DHT22;15471;51.166;4.470;2022-09-01T05:35:07;15.70;99.90
28189;DHT22;15471;51.166;4.470;2022-09-01T05:37:38;15.70;99.90
28189;DHT22;15471;51.166;4.470;2022-09-01T05:40:21;15.80;99.90
28189;DHT22;15471;51.166;4.470;2022-09-01T05:42:49;15.90;99.90
28189;DHT22;15471;51.166;4.470;2022-09-01T05:45:21;15.90;99.90
28189;DHT22;15471;51.166;4.470;2022-09-01T05:47:54;16.00;99.90
28189;DHT22;15471;51.166;4.470;2022-09-01T05:50:38;15.90;99.90
28189;DHT22;15471;51.166;4.470;2022-09-01T05:53:11;15.80;99.90
28189;DHT22;15471;51.166;4.470;2022-09-01T05:55:47;15.80;99.90
28189;DHT22;15471;51.166;4.470;2022-09-01T05:58:15;15.80;99.90
28189;DHT22;15471;51.166;4.470;2022-09-01T06:00:47;15.80;99.90
28189;DHT22;15471;51.166;4.470;2022-09-01T06:03:14;15.90;99.90
28189;DHT22;15471;51.166;4.470;2022-09-01T06:06:04;16.00;99.90
28189;DHT22;15471;51.166;4.470;2022-09-01T06:08:43;16.10;99.90
28189;DHT22;15471;51.166;4.470;2022-09-01T06:11:10;16.00;99.90
28189;DHT22;15471;51.166;4.470;2022-09-01T06:13:41;16.10;99.90
28189;DHT22;15471;51.166;4.470;2022-09-01T06:16:21;16.10;99.90
28189;DHT22;15471;51.166;4.470;2022-09-01T06:18:52;16.10;99.90
28189;DHT22;15471;51.166;4.470;2022-09-01T06:21:22;16.20;99.90
28189;DHT22;15471;51.166;4.470;2022-09-01T06:24:12;16.20;99.90
28189;DHT22;15471;51.166;4.470;2022-09-01T06:26:40;16.30;99.90
28189;DHT22;15471;51.166;4.470;2022-09-01T06:33:04;16.50;99.90
28189;DHT22;15471;51.166;4.470;2022-09-01T06:36:04;16.50;99.90
28189;DHT22;15471;51.166;4.470;2022-09-01T06:38:59;16.60;99.90
28189;DHT22;15471;51.166;4.470;2022-09-01T06:41:48;16.60;99.90
28189;DHT22;15471;51.166;4.470;2022-09-01T06:44:19;16.70;99.90
28189;DHT22;15471;51.166;4.470;2022-09-01T06:46:59;16.80;99.90
28189;DHT22;15471;51.166;4.470;2022-09-01T06:49:31;17.00;99.90
28189;DHT22;15471;51.166;4.470;2022-09-01T06:52:21;17.10;99.90
28189;DHT22;15471;51.166;4.470;2022-09-01T06:55:16;17.00;99.90
28189;DHT22;15471;51.166;4.470;2022-09-01T06:58:22;17.00;99.90
28189;DHT22;15471;51.166;4.470;2022-09-01T07:00:52;17.10;99.90
28189;DHT22;15471;51.166;4.470;2022-09-01T07:03:22;17.20;99.90
28189;DHT22;15471;51.166;4.470;2022-09-01T07:06:43;17.30;99.90
28189;DHT22;15471;51.166;4.470;2022-09-01T07:09:42;17.40;99.90
28189;DHT22;15471;51.166;4.470;2022-09-01T07:12:49;17.40;99.90
28189;DHT22;15471;51.166;4.470;2022-09-01T07:15:15;17.70;99.90
28189;DHT22;15471;51.166;4.470;2022-09-01T07:17:49;17.70;99.90
28189;DHT22;15471;51.166;4.470;2022-09-01T07:20:22;17.80;99.90
28189;DHT22;15471;51.166;4.470;2022-09-01T07:22:49;17.90;99.90
28189;DHT22;15471;51.166;4.470;2022-09-01T07:25:16;18.00;99.90
28189;DHT22;15471;51.166;4.470;2022-09-01T07:27:49;18.00;99.90
28189;DHT22;15471;51.166;4.470;2022-09-01T07:30:21;18.10;99.90
28189;DHT22;15471;51.166;4.470;2022-09-01T07:32:47;18.20;99.90
28189;DHT22;15471;51.166;4.470;2022-09-01T07:35:19;18.30;99.90
28189;DHT22;15471;51.166;4.470;2022-09-01T07:37:48;18.40;99.90
28189;DHT22;15471;51.166;4.470;2022-09-01T07:40:19;18.40;99.90
28189;DHT22;15471;51.166;4.470;2022-09-01T07:42:54;18.50;99.90
28189;DHT22;15471;51.166;4.470;2022-09-01T07:45:58;18.70;99.90
28189;DHT22;15471;51.166;4.470;2022-09-01T07:48:26;18.70;99.90
28189;DHT22;15471;51.166;4.470;2022-09-01T07:50:54;18.80;99.90
28189;DHT22;15471;51.166;4.470;2022-09-01T07:53:23;19.00;99.90
28189;DHT22;15471;51.166;4.470;2022-09-01T07:55:52;19.10;99.90
28189;DHT22;15471;51.166;4.470;2022-09-01T07:58:20;19.10;99.90
28189;DHT22;15471;51.166;4.470;2022-09-01T08:00:50;19.30;99.90
28189;DHT22;15471;51.166;4.470;2022-09-01T08:03:20;19.50;99.90
28189;DHT22;15471;51.166;4.470;2022-09-01T08:05:46;19.60;99.90
28189;DHT22;15471;51.166;4.470;2022-09-01T08:08:16;19.70;99.90
28189;DHT22;15471;51.166;4.470;2022-09-01T08:10:42;19.90;99.90
28189;DHT22;15471;51.166;4.470;2022-09-01T08:13:10;20.10;99.90
28189;DHT22;15471;51.166;4.470;2022-09-01T08:15:38;20.10;99.90
28189;DHT22;15471;51.166;4.470;2022-09-01T08:18:05;20.10;99.90
28189;DHT22;15471;51.166;4.470;2022-09-01T08:20:32;20.20;99.90
28189;DHT22;15471;51.166;4.470;2022-09-01T08:23:16;20.40;99.90
28189;DHT22;15471;51.166;4.470;2022-09-01T08:25:45;20.40;99.90
28189;DHT22;15471;51.166;4.470;2022-09-01T08:28:13;20.40;99.90
28189;DHT22;15471;51.166;4.470;2022-09-01T08:33:16;20.60;99.90
28189;DHT22;15471;51.166;4.470;2022-09-01T08:35:47;20.70;99.90
28189;DHT22;15471;51.166;4.470;2022-09-01T08:38:14;20.70;99.90
28189;DHT22;15471;51.166;4.470;2022-09-01T08:40:42;20.90;99.90
28189;DHT22;15471;51.166;4.470;2022-09-01T08:46:24;24.70;99.90
28189;DHT22;15471;51.166;4.470;2022-09-01T08:48:54;26.50;96.40
28189;DHT22;15471;51.166;4.470;2022-09-01T08:51:36;27.80;91.10
28189;DHT22;15471;51.166;4.470;2022-09-01T08:54:31;28.30;85.90
28189;DHT22;15471;51.166;4.470;2022-09-01T08:57:46;29.20;82.00
28189;DHT22;15471;51.166;4.470;2022-09-01T09:00:14;29.80;78.40
28189;DHT22;15471;51.166;4.470;2022-09-01T09:08:55;30.30;71.80
28189;DHT22;15471;51.166;4.470;2022-09-01T09:16:42;31.70;67.50
28189;DHT22;15471;51.166;4.470;2022-09-01T09:19:36;31.70;64.50
28189;DHT22;15471;51.166;4.470;2022-09-01T09:22:05;31.80;64.50
28189;DHT22;15471;51.166;4.470;2022-09-01T09:24:36;31.20;65.90
28189;DHT22;15471;51.166;4.470;2022-09-01T09:27:31;30.80;66.30
28189;DHT22;15471;51.166;4.470;2022-09-01T09:30:19;30.60;66.40
28189;DHT22;15471;51.166;4.470;2022-09-01T09:43:25;29.10;67.50
28189;DHT22;15471;51.166;4.470;2022-09-01T09:49:07;28.60;67.10
28189;DHT22;15471;51.166;4.470;2022-09-01T09:51:33;28.30;67.80
28189;DHT22;15471;51.166;4.470;2022-09-01T09:54:17;27.80;67.40
28189;DHT22;15471;51.166;4.470;2022-09-01T09:56:43;27.60;68.50
28189;DHT22;15471;51.166;4.470;2022-09-01T10:01:48;28.10;67.40
28189;DHT22;15471;51.166;4.470;2022-09-01T10:04:51;27.90;67.60
28189;DHT22;15471;51.166;4.470;2022-09-01T10:07:29;28.00;65.10
28189;DHT22;15471;51.166;4.470;2022-09-01T10:09:59;28.00;64.50
28189;DHT22;15471;51.166;4.470;2022-09-01T10:12:27;27.70;65.30
28189;DHT22;15471;51.166;4.470;2022-09-01T10:15:04;27.30;66.40
28189;DHT22;15471;51.166;4.470;2022-09-01T10:17:34;27.40;67.80
28189;DHT22;15471;51.166;4.470;2022-09-01T10:22:36;27.10;67.10
28189;DHT22;15471;51.166;4.470;2022-09-01T10:25:04;27.00;68.60
28189;DHT22;15471;51.166;4.470;2022-09-01T10:27:36;27.10;68.40
28189;DHT22;15471;51.166;4.470;2022-09-01T10:30:11;27.10;67.00
28189;DHT22;15471;51.166;4.470;2022-09-01T10:32:53;27.10;67.60
28189;DHT22;15471;51.166;4.470;2022-09-01T10:35:26;27.00;67.70
28189;DHT22;15471;51.166;4.470;2022-09-01T11:34:20;26.70;65.10
28189;DHT22;15471;51.166;4.470;2022-09-01T12:07:22;26.70;64.40
28189;DHT22;15471;51.166;4.470;2022-09-01T12:09:51;26.70;64.30
28189;DHT22;15471;51.166;4.470;2022-09-01T12:22:20;26.70;65.30
28189;DHT22;15471;51.166;4.470;2022-09-01T12:24:52;26.70;65.10
28189;DHT22;15471;51.166;4.470;2022-09-01T12:27:32;26.50;65.10
28189;DHT22;15471;51.166;4.470;2022-09-01T12:30:02;26.50;64.60
28189;DHT22;15471;51.166;4.470;2022-09-01T12:32:35;26.70;63.40
28189;DHT22;15471;51.166;4.470;2022-09-01T12:35:13;26.80;63.70
28189;DHT22;15471;51.166;4.470;2022-09-01T12:43:07;27.30;62.00
28189;DHT22;15471;51.166;4.470;2022-09-01T12:45:44;27.30;61.60
28189;DHT22;15471;51.166;4.470;2022-09-01T12:48:28;27.30;61.30
28189;DHT22;15471;51.166;4.470;2022-09-01T12:51:05;27.30;61.30
28189;DHT22;15471;51.166;4.470;2022-09-01T12:53:33;27.40;61.20
28189;DHT22;15471;51.166;4.470;2022-09-01T12:56:14;27.40;60.90
28189;DHT22;15471;51.166;4.470;2022-09-01T12:58:47;27.50;61.60
28189;DHT22;15471;51.166;4.470;2022-09-01T13:01:26;27.80;61.50
28189;DHT22;15471;51.166;4.470;2022-09-01T13:06:56;28.30;59.90
28189;DHT22;15471;51.166;4.470;2022-09-01T13:09:24;28.20;59.30
28189;DHT22;15471;51.166;4.470;2022-09-01T13:11:50;27.90;59.40
28189;DHT22;15471;51.166;4.470;2022-09-01T13:14:16;27.50;61.00
28189;DHT22;15471;51.166;4.470;2022-09-01T13:16:43;27.20;62.80
28189;DHT22;15471;51.166;4.470;2022-09-01T13:19:09;27.10;62.20
28189;DHT22;15471;51.166;4.470;2022-09-01T13:21:35;26.90;62.70
28189;DHT22;15471;51.166;4.470;2022-09-01T13:24:03;27.00;63.40
28189;DHT22;15471;51.166;4.470;2022-09-01T13:26:30;27.20;63.30
28189;DHT22;15471;51.166;4.470;2022-09-01T13:28:57;27.50;62.20
28189;DHT22;15471;51.166;4.470;2022-09-01T13:31:23;27.80;59.50
28189;DHT22;15471;51.166;4.470;2022-09-01T13:33:49;28.00;58.60
28189;DHT22;15471;51.166;4.470;2022-09-01T13:36:15;28.20;58.10
28189;DHT22;15471;51.166;4.470;2022-09-01T13:38:41;27.90;58.90
28189;DHT22;15471;51.166;4.470;2022-09-01T13:54:27;27.80;59.00
28189;DHT22;15471;51.166;4.470;2022-09-01T13:56:53;28.00;57.90
28189;DHT22;15471;51.166;4.470;2022-09-01T13:59:18;27.70;58.80
28189;DHT22;15471;51.166;4.470;2022-09-01T14:01:44;27.30;59.40
28189;DHT22;15471;51.166;4.470;2022-09-01T14:04:10;27.00;59.90
28189;DHT22;15471;51.166;4.470;2022-09-01T14:06:41;26.70;60.00
28189;DHT22;15471;51.166;4.470;2022-09-01T14:09:12;26.70;59.70
28189;DHT22;15471;51.166;4.470;2022-09-01T14:11:39;26.80;58.90
28189;DHT22;15471;51.166;4.470;2022-09-01T14:14:05;26.80;58.90
28189;DHT22;15471;51.166;4.470;2022-09-01T14:16:31;26.90;59.60
28189;DHT22;15471;51.166;4.470;2022-09-01T14:18:57;27.00;59.20
28189;DHT22;15471;51.166;4.470;2022-09-01T14:21:25;27.10;59.40
28189;DHT22;15471;51.166;4.470;2022-09-01T14:23:51;27.30;58.50
28189;DHT22;15471;51.166;4.470;2022-09-01T14:26:17;27.40;58.30
28189;DHT22;15471;51.166;4.470;2022-09-01T14:28:44;27.50;57.10
28189;DHT22;15471;51.166;4.470;2022-09-01T14:31:14;27.40;57.40
28189;DHT22;15471;51.166;4.470;2022-09-01T14:33:41;27.30;57.30
28189;DHT22;15471;51.166;4.470;2022-09-01T14:36:08;27.40;56.90
28189;DHT22;15471;51.166;4.470;2022-09-01T14:38:40;27.10;57.00
28189;DHT22;15471;51.166;4.470;2022-09-01T14:41:06;27.00;57.20
28189;DHT22;15471;51.166;4.470;2022-09-01T14:43:32;27.20;56.90
28189;DHT22;15471;51.166;4.470;2022-09-01T14:46:06;27.50;55.40
28189;DHT22;15471;51.166;4.470;2022-09-01T14:48:33;27.70;54.70
28189;DHT22;15471;51.166;4.470;2022-09-01T14:51:00;27.70;54.70
28189;DHT22;15471;51.166;4.470;2022-09-01T14:53:30;27.80;54.30
28189;DHT22;15471;51.166;4.470;2022-09-01T14:55:57;28.00;53.80
28189;DHT22;15471;51.166;4.470;2022-09-01T14:58:28;27.80;55.40
28189;DHT22;15471;51.166;4.470;2022-09-01T15:00:55;27.70;55.60
28189;DHT22;15471;51.166;4.470;2022-09-01T15:03:25;27.60;54.50
28189;DHT22;15471;51.166;4.470;2022-09-01T15:05:52;27.70;55.30
28189;DHT22;15471;51.166;4.470;2022-09-01T15:08:19;27.80;53.30
28189;DHT22;15471;51.166;4.470;2022-09-01T15:10:44;27.70;53.80
28189;DHT22;15471;51.166;4.470;2022-09-01T15:13:10;27.80;53.50
28189;DHT22;15471;51.166;4.470;2022-09-01T15:15:37;28.00;52.70
28189;DHT22;15471;51.166;4.470;2022-09-01T15:18:03;28.00;52.80
28189;DHT22;15471;51.166;4.470;2022-09-01T15:20:29;27.90;53.60
28189;DHT22;15471;51.166;4.470;2022-09-01T15:23:15;27.90;53.60
28189;DHT22;15471;51.166;4.470;2022-09-01T15:25:41;28.00;53.60
28189;DHT22;15471;51.166;4.470;2022-09-01T15:28:09;28.10;53.00
28189;DHT22;15471;51.166;4.470;2022-09-01T15:30:37;28.20;53.50
28189;DHT22;15471;51.166;4.470;2022-09-01T15:33:10;28.30;53.00
28189;DHT22;15471;51.166;4.470;2022-09-01T15:36:06;28.30;52.10
28189;DHT22;15471;51.166;4.470;2022-09-01T15:53:11;28.40;51.70
28189;DHT22;15471;51.166;4.470;2022-09-01T15:55:46;28.40;51.50
28189;DHT22;15471;51.166;4.470;2022-09-01T15:58:14;28.50;51.20
28189;DHT22;15471;51.166;4.470;2022-09-01T16:00:41;28.70;51.00
28189;DHT22;15471;51.166;4.470;2022-09-01T16:03:07;28.90;49.90
28189;DHT22;15471;51.166;4.470;2022-09-01T16:05:35;29.70;49.20
28189;DHT22;15471;51.166;4.470;2022-09-01T16:08:01;31.50;48.10
28189;DHT22;15471;51.166;4.470;2022-09-01T16:10:29;33.80;45.40
28189;DHT22;15471;51.166;4.470;2022-09-01T16:12:55;35.50;41.20
28189;DHT22;15471;51.166;4.470;2022-09-01T16:15:23;36.80;39.10
28189;DHT22;15471;51.166;4.470;2022-09-01T16:18:15;37.60;37.60
28189;DHT22;15471;51.166;4.470;2022-09-01T16:20:53;38.50;35.80
28189;DHT22;15471;51.166;4.470;2022-09-01T16:23:38;39.00;34.80
28189;DHT22;15471;51.166;4.470;2022-09-01T16:26:05;39.90;32.50
28189;DHT22;15471;51.166;4.470;2022-09-01T16:28:34;40.60;31.30
28189;DHT22;15471;51.166;4.470;2022-09-01T16:31:14;40.90;31.60
28189;DHT22;15471;51.166;4.470;2022-09-01T16:33:48;42.20;30.00
28189;DHT22;15471;51.166;4.470;2022-09-01T16:39:42;44.40;27.70
28189;DHT22;15471;51.166;4.470;2022-09-01T16:42:39;44.80;26.10
28189;DHT22;15471;51.166;4.470;2022-09-01T16:51:12;44.10;26.40
28189;DHT22;15471;51.166;4.470;2022-09-01T16:56:38;43.40;26.60
28189;DHT22;15471;51.166;4.470;2022-09-01T16:59:19;43.00;26.60
28189;DHT22;15471;51.166;4.470;2022-09-01T17:07:19;39.50;28.70
28189;DHT22;15471;51.166;4.470;2022-09-01T17:12:28;37.70;30.00
28189;DHT22;15471;51.166;4.470;2022-09-01T17:15:00;36.80;30.30
28189;DHT22;15471;51.166;4.470;2022-09-01T17:17:54;35.40;32.10
28189;DHT22;15471;51.166;4.470;2022-09-01T17:20:29;33.90;34.00
28189;DHT22;15471;51.166;4.470;2022-09-01T17:22:58;32.60;35.10
28189;DHT22;15471;51.166;4.470;2022-09-01T17:25:32;31.60;36.80
28189;DHT22;15471;51.166;4.470;2022-09-01T17:28:07;30.90;37.80
28189;DHT22;15471;51.166;4.470;2022-09-01T17:30:56;30.30;39.00
28189;DHT22;15471;51.166;4.470;2022-09-01T17:39:18;28.40;42.10
28189;DHT22;15471;51.166;4.470;2022-09-01T17:41:57;28.10;42.40
28189;DHT22;15471;51.166;4.470;2022-09-01T17:47:09;27.40;43.80
28189;DHT22;15471;51.166;4.470;2022-09-01T17:50:21;27.10;44.60
28189;DHT22;15471;51.166;4.470;2022-09-01T18:01:00;26.10;47.20
28189;DHT22;15471;51.166;4.470;2022-09-01T18:03:56;25.90;48.20
28189;DHT22;15471;51.166;4.470;2022-09-01T18:09:06;25.20;50.30
28189;DHT22;15471;51.166;4.470;2022-09-01T18:14:32;24.80;51.60
28189;DHT22;15471;51.166;4.470;2022-09-01T18:17:18;24.60;52.10
28189;DHT22;15471;51.166;4.470;2022-09-01T18:22:41;24.20;53.70
28189;DHT22;15471;51.166;4.470;2022-09-01T18:25:19;24.00;54.10
28189;DHT22;15471;51.166;4.470;2022-09-01T18:27:52;23.80;55.10
28189;DHT22;15471;51.166;4.470;2022-09-01T18:30:21;23.50;55.60
28189;DHT22;15471;51.166;4.470;2022-09-01T18:33:13;23.30;56.30
28189;DHT22;15471;51.166;4.470;2022-09-01T18:35:58;23.10;56.50
28189;DHT22;15471;51.166;4.470;2022-09-01T18:38:47;23.10;56.20
28189;DHT22;15471;51.166;4.470;2022-09-01T18:44:09;22.90;58.00
28189;DHT22;15471;51.166;4.470;2022-09-01T18:46:46;22.80;58.40
28189;DHT22;15471;51.166;4.470;2022-09-01T18:54:51;22.40;59.50
28189;DHT22;15471;51.166;4.470;2022-09-01T18:57:25;22.40;59.70
28189;DHT22;15471;51.166;4.470;2022-09-01T19:00:10;22.30;59.80
28189;DHT22;15471;51.166;4.470;2022-09-01T19:20:28;21.40;65.90
28189;DHT22;15471;51.166;4.470;2022-09-01T19:23:06;21.20;65.10
28189;DHT22;15471;51.166;4.470;2022-09-01T19:25:35;21.10;65.80
28189;DHT22;15471;51.166;4.470;2022-09-01T19:28:13;21.00;67.30
28189;DHT22;15471;51.166;4.470;2022-09-01T19:33:56;20.90;67.50
28189;DHT22;15471;51.166;4.470;2022-09-01T19:36:38;20.80;67.80
28189;DHT22;15471;51.166;4.470;2022-09-01T19:39:08;20.70;68.50
28189;DHT22;15471;51.166;4.470;2022-09-01T19:42:35;20.70;68.60
28189;DHT22;15471;51.166;4.470;2022-09-01T19:56:48;20.70;69.10
28189;DHT22;15471;51.166;4.470;2022-09-01T19:59:59;20.60;69.70
28189;DHT22;15471;51.166;4.470;2022-09-01T20:03:59;20.60;69.40
28189;DHT22;15471;51.166;4.470;2022-09-01T20:06:58;20.40;70.50
28189;DHT22;15471;51.166;4.470;2022-09-01T20:09:55;20.30;71.40
28189;DHT22;15471;51.166;4.470;2022-09-01T20:12:48;20.30;71.80
28189;DHT22;15471;51.166;4.470;2022-09-01T20:18:33;20.50;70.50
28189;DHT22;15471;51.166;4.470;2022-09-01T20:21:08;20.40;69.80
28189;DHT22;15471;51.166;4.470;2022-09-01T20:23:56;20.40;70.90
28189;DHT22;15471;51.166;4.470;2022-09-01T20:26:31;20.50;69.60
28189;DHT22;15471;51.166;4.470;2022-09-01T20:31:53;20.60;69.70
28189;DHT22;15471;51.166;4.470;2022-09-01T20:34:35;20.50;70.80
28189;DHT22;15471;51.166;4.470;2022-09-01T20:37:30;20.50;71.50
28189;DHT22;15471;51.166;4.470;2022-09-01T20:40:10;20.40;70.30
28189;DHT22;15471;51.166;4.470;2022-09-01T20:43:16;20.40;70.40
28189;DHT22;15471;51.166;4.470;2022-09-01T20:45:49;20.40;70.60
28189;DHT22;15471;51.166;4.470;2022-09-01T20:48:23;20.40;70.40
28189;DHT22;15471;51.166;4.470;2022-09-01T20:51:17;20.50;70.40